South Pasadena, Florida
Current Conditions -  °F | °C
As of 8:53 AM on Thursday 23 Oct 2014 (Local Time) from KSPG Reporting Station
Clear Clear  
Wind Chill: 70°   Ceiling: Unl
Heat Index: 70°   Visibility: 10mi
Dew Point: 60°   Wind: 18mph
Humidity: 71%   Direction: 60°ENE
Pressure: 29.98"   Gusts: NA
Location:  27.7562°N, 82.7184°W
Report Text: KSPG 231253Z 06016KT 10SM CLR 21/16 A2998 RMK AO2 SLP152 T02110156
Loading
Personal Weather Stations






























Interactive Weather Map New forecast layout! Learn more

10-Day Weather Forecast

Advertisements
Track Severe Weather on mobile